Time;durP1;ratioP1;P1;durP2;ratioP2;P2;SDS_P1;SDS_P2;PMS_P1;PMS_P2;Temp;Humidity;BMP_temperature;BMP_pressure;BME280_temperature;BME280_humidity;BME280_pressure;Samples;Min_cycle;Max_cycle;Signal;HPM_P1;HPM_P2
2022/01/31 00:00:34;;;;;;;3.55;1.95;;;;;;;13.33;45.20;97012.00;5134864;27;20023;-31
2022/01/31 00:03:00;;;;;;;3.67;1.70;;;;;;;13.38;44.68;97003.28;5134697;27;20049;-31
2022/01/31 00:05:26;;;;;;;6.10;2.33;;;;;;;13.23;45.31;97002.88;5134102;27;20023;-31
2022/01/31 00:07:51;;;;;;;3.45;2.15;;;;;;;13.26;45.24;96997.34;5134772;27;20479;-31
2022/01/31 00:10:26;;;;;;;4.38;2.13;;;;;;;13.27;45.35;96995.38;5134788;27;20027;-31
2022/01/31 00:13:01;;;;;;;4.15;1.90;;;;;;;13.29;45.22;96996.50;5134821;27;20027;-30
2022/01/31 00:15:28;;;;;;;2.95;1.60;;;;;;;13.32;45.01;97000.31;5111823;27;20440;-31
2022/01/31 00:17:53;;;;;;;4.53;2.08;;;;;;;13.36;44.75;97005.66;5112309;28;20057;-31
2022/01/31 00:20:19;;;;;;;4.78;2.38;;;;;;;13.34;45.17;97008.06;5114199;28;20098;-31
2022/01/31 00:22:45;;;;;;;4.13;1.95;;;;;;;13.41;44.88;97013.31;5114461;28;20447;-31
2022/01/31 00:25:10;;;;;;;3.42;1.70;;;;;;;13.34;45.17;97010.81;5114216;28;20051;-31
2022/01/31 00:27:36;;;;;;;3.92;2.60;;;;;;;13.40;44.76;97003.63;5114086;28;20073;-31
2022/01/31 00:30:03;;;;;;;3.58;1.85;;;;;;;13.28;45.46;97005.88;5113810;28;20023;-31
2022/01/31 00:32:29;;;;;;;4.20;2.00;;;;;;;13.37;44.99;96999.03;5114104;28;20028;-31
2022/01/31 00:34:56;;;;;;;3.05;2.00;;;;;;;13.36;44.90;96989.31;5113939;28;20023;-31
2022/01/31 00:37:22;;;;;;;6.72;2.67;;;;;;;13.39;44.73;96980.28;5113788;28;20023;-31
2022/01/31 00:39:47;;;;;;;4.40;2.22;;;;;;;13.42;44.85;96990.34;5113686;28;20027;-31
2022/01/31 00:42:13;;;;;;;3.70;2.10;;;;;;;13.34;44.91;96997.19;5114018;28;20031;-31
2022/01/31 00:44:50;;;;;;;3.80;2.30;;;;;;;13.38;44.95;96979.53;5113854;28;20027;-31
2022/01/31 00:47:20;;;;;;;5.85;2.30;;;;;;;13.29;45.13;96982.88;5114051;28;20057;-31
2022/01/31 00:50:06;;;;;;;3.20;2.30;;;;;;;13.25;45.12;96981.44;5113857;28;20024;-31
2022/01/31 00:52:31;;;;;;;4.22;2.42;;;;;;;13.31;45.23;96971.56;5113483;28;20035;-31
2022/01/31 00:54:57;;;;;;;4.90;2.38;;;;;;;13.29;45.07;96974.72;5113772;28;20069;-32
2022/01/31 00:57:22;;;;;;;4.00;2.25;;;;;;;13.29;45.22;96963.81;5113657;28;20028;-32
2022/01/31 00:59:51;;;;;;;3.83;2.30;;;;;;;13.36;44.71;96959.34;5113741;28;20456;-31
2022/01/31 01:02:22;;;;;;;3.63;2.10;;;;;;;13.38;44.64;96965.91;5113872;28;20034;-31
2022/01/31 01:04:48;;;;;;;6.00;2.20;;;;;;;13.37;44.81;96963.59;5113449;28;20053;-33
2022/01/31 01:07:14;;;;;;;4.68;2.00;;;;;;;13.28;45.42;96964.25;5113555;28;20023;-31
2022/01/31 01:09:44;;;;;;;4.35;2.05;;;;;;;13.29;45.07;96969.25;5113810;28;20027;-31
2022/01/31 01:12:11;;;;;;;4.32;2.53;;;;;;;13.30;45.21;96954.44;5113381;28;20039;-31
2022/01/31 01:14:37;;;;;;;3.38;1.92;;;;;;;13.22;45.39;96957.81;5113713;28;20020;-31
2022/01/31 01:17:03;;;;;;;4.15;2.25;;;;;;;13.31;45.07;96957.94;5113799;28;20023;-31
2022/01/31 01:19:29;;;;;;;4.95;2.00;;;;;;;13.33;45.02;96957.50;5112496;28;20184;-31
2022/01/31 01:21:54;;;;;;;5.20;2.15;;;;;;;13.38;44.82;96949.56;5112508;28;20069;-31
2022/01/31 01:24:19;;;;;;;3.88;1.83;;;;;;;13.37;44.76;96947.25;5112676;28;20077;-32
2022/01/31 01:26:46;;;;;;;2.95;1.75;;;;;;;13.35;45.15;96944.22;5094305;28;20027;-31
2022/01/31 01:29:12;;;;;;;3.22;1.83;;;;;;;13.37;44.60;96947.25;5112248;28;20091;-32
2022/01/31 01:31:37;;;;;;;2.92;1.90;;;;;;;13.34;45.02;96937.25;5112350;28;20111;-31
2022/01/31 01:34:03;;;;;;;2.78;1.88;;;;;;;13.37;44.74;96939.09;5112307;28;20024;-31
2022/01/31 01:36:28;;;;;;;3.65;2.17;;;;;;;13.21;45.20;96939.94;5112369;28;20027;-31
2022/01/31 01:38:54;;;;;;;4.00;1.88;;;;;;;13.25;45.11;96929.69;5112196;28;20020;-31
2022/01/31 01:41:20;;;;;;;6.20;2.65;;;;;;;13.33;44.76;96920.13;5112558;28;20418;-31
2022/01/31 01:43:45;;;;;;;4.30;2.17;;;;;;;13.32;45.15;96913.16;5112150;28;20015;-31
2022/01/31 01:46:11;;;;;;;3.85;2.30;;;;;;;13.27;44.92;96909.00;5093876;28;20024;-31
2022/01/31 01:48:37;;;;;;;4.68;2.10;;;;;;;13.32;44.92;96907.72;5112023;28;20031;-31
2022/01/31 01:51:03;;;;;;;4.05;1.98;;;;;;;13.36;44.76;96910.31;5112191;28;20015;-31
2022/01/31 01:53:28;;;;;;;4.20;2.42;;;;;;;13.28;45.00;96904.31;5115262;28;20022;-30
2022/01/31 01:55:54;;;;;;;3.05;2.15;;;;;;;13.24;45.05;96906.38;5115654;28;20072;-33
2022/01/31 01:58:22;;;;;;;5.18;2.53;;;;;;;13.30;45.10;96897.25;5115472;28;20098;-31
2022/01/31 02:00:50;;;;;;;3.90;2.17;;;;;;;13.24;45.08;96901.69;5115742;28;20393;-31
2022/01/31 02:03:20;;;;;;;3.17;2.10;;;;;;;13.33;44.54;96892.91;5115507;28;20023;-31
2022/01/31 02:05:47;;;;;;;3.38;1.90;;;;;;;13.29;44.74;96884.81;5115515;28;20028;-31
2022/01/31 02:08:14;;;;;;;5.15;2.00;;;;;;;13.30;44.47;96878.19;5115377;28;20058;-32
2022/01/31 02:10:40;;;;;;;6.20;2.67;;;;;;;13.26;45.04;96879.47;5115469;28;20023;-31
2022/01/31 02:13:07;;;;;;;2.75;2.00;;;;;;;13.23;45.13;96878.38;5115438;28;20095;-31
2022/01/31 02:15:34;;;;;;;5.25;2.53;;;;;;;13.27;45.07;96889.94;5115236;28;20110;-31
2022/01/31 02:17:59;;;;;;;4.88;2.72;;;;;;;13.20;44.89;96879.25;5074605;28;1153148;-31
2022/01/31 02:20:25;;;;;;;4.68;2.38;;;;;;;13.25;44.80;96880.66;5097977;28;20028;-31
2022/01/31 02:22:51;;;;;;;6.35;2.05;;;;;;;13.32;44.78;96879.69;5116341;28;20149;-31
2022/01/31 02:25:16;;;;;;;3.50;2.10;;;;;;;13.18;44.73;96878.16;5116313;28;20024;-31
2022/01/31 02:27:43;;;;;;;5.13;2.47;;;;;;;13.26;44.94;96863.88;5116389;28;20028;-31
2022/01/31 02:30:12;;;;;;;4.20;2.30;;;;;;;13.17;44.90;96869.22;5116132;28;20034;-31
2022/01/31 02:32:38;;;;;;;4.60;2.20;;;;;;;13.27;44.52;96867.38;5116311;28;20024;-31
2022/01/31 02:35:04;;;;;;;3.63;2.40;;;;;;;13.27;44.78;96864.66;5116164;28;20027;-31
2022/01/31 02:37:30;;;;;;;5.32;2.22;;;;;;;13.29;44.26;96864.97;5116097;28;20035;-31
2022/01/31 02:39:56;;;;;;;4.45;2.30;;;;;;;13.17;44.87;96857.56;5115925;28;20460;-31
2022/01/31 02:42:22;;;;;;;4.43;2.13;;;;;;;13.33;44.27;96854.75;5115962;28;20106;-31
2022/01/31 02:44:47;;;;;;;3.75;2.10;;;;;;;13.26;44.06;96858.44;5115968;28;20359;-32
2022/01/31 02:47:18;;;;;;;4.07;2.20;;;;;;;13.26;44.38;96855.72;5116405;28;20016;-31
2022/01/31 02:49:49;;;;;;;4.50;2.55;;;;;;;13.24;44.13;96844.47;5115973;28;20370;-36
2022/01/31 02:52:17;;;;;;;5.03;2.35;;;;;;;13.25;44.23;96850.69;5116049;28;20031;-31
2022/01/31 02:54:42;;;;;;;5.13;2.17;;;;;;;13.26;44.21;96842.09;5115907;28;20096;-31
2022/01/31 02:57:08;;;;;;;6.13;2.42;;;;;;;13.19;44.49;96834.13;5115552;28;20472;-31
2022/01/31 02:59:34;;;;;;;6.13;2.35;;;;;;;13.17;44.36;96841.97;5115805;28;20023;-31
2022/01/31 03:01:59;;;;;;;3.90;2.40;;;;;;;13.18;44.15;96829.88;5134298;27;20027;-31
2022/01/31 03:04:25;;;;;;;2.80;2.03;;;;;;;13.17;44.24;96828.34;5134804;27;20019;-31
2022/01/31 03:06:50;;;;;;;3.15;1.65;;;;;;;13.26;43.67;96822.25;5136092;27;20023;-31
2022/01/31 03:09:16;;;;;;;2.75;1.98;;;;;;;13.24;43.90;96808.31;5135848;27;20030;-31
2022/01/31 03:11:42;;;;;;;4.18;2.10;;;;;;;13.21;44.02;96803.75;5135766;27;20023;-31
2022/01/31 03:14:09;;;;;;;4.90;2.22;;;;;;;13.19;43.81;96806.91;5136219;27;20037;-32
2022/01/31 03:16:39;;;;;;;4.35;1.90;;;;;;;13.26;43.52;96806.69;5135804;27;20094;-31
2022/01/31 03:19:05;;;;;;;6.47;2.60;;;;;;;13.22;43.84;96808.78;5135800;27;20043;-31
2022/01/31 03:21:31;;;;;;;3.35;1.90;;;;;;;13.19;43.96;96811.59;5136071;27;20015;-31
2022/01/31 03:23:56;;;;;;;5.28;1.98;;;;;;;13.26;43.47;96808.66;5135934;27;20479;-31
2022/01/31 03:26:21;;;;;;;4.05;2.13;;;;;;;13.23;43.74;96804.81;5135624;27;20031;-31
2022/01/31 03:28:49;;;;;;;3.10;1.77;;;;;;;13.13;43.60;96803.16;5135466;27;20077;-31
2022/01/31 03:31:18;;;;;;;5.75;2.22;;;;;;;13.18;43.88;96802.66;5135158;27;20027;-31
2022/01/31 03:33:47;;;;;;;3.13;1.73;;;;;;;13.09;43.93;96799.03;5135464;27;20051;-31
2022/01/31 03:36:12;;;;;;;5.80;2.42;;;;;;;13.21;43.90;96799.06;5135441;27;20462;-31
2022/01/31 03:38:40;;;;;;;3.85;1.98;;;;;;;13.18;43.97;96797.22;5135425;27;20019;-31
2022/01/31 03:41:10;;;;;;;3.83;2.20;;;;;;;13.15;43.85;96797.31;5135435;27;20106;-31
2022/01/31 03:43:36;;;;;;;4.75;1.80;;;;;;;13.18;43.89;96807.34;5117030;27;20360;-29
2022/01/31 03:46:02;;;;;;;4.18;2.40;;;;;;;13.20;43.83;96799.50;5135318;27;20034;-31
2022/01/31 03:48:29;;;;;;;5.20;1.83;;;;;;;13.16;43.86;96796.13;5135222;27;20023;-33
2022/01/31 03:50:58;;;;;;;4.53;2.17;;;;;;;13.18;43.65;96799.16;5135475;27;20110;-32
2022/01/31 03:53:25;;;;;;;5.10;2.20;;;;;;;13.04;44.35;96794.88;5116631;27;20067;-31
2022/01/31 03:55:51;;;;;;;5.97;2.45;;;;;;;13.09;44.10;96791.63;5135105;27;20031;-31
2022/01/31 03:58:17;;;;;;;3.25;2.05;;;;;;;13.24;43.83;96790.00;5135168;27;20027;-32
2022/01/31 04:00:43;;;;;;;3.40;1.85;;;;;;;13.19;43.83;96784.34;5134889;27;20019;-31
2022/01/31 04:03:09;;;;;;;5.28;1.90;;;;;;;13.14;44.04;96782.94;5134961;27;20356;-31
2022/01/31 04:05:37;;;;;;;5.18;2.38;;;;;;;13.17;44.15;96790.22;5135190;27;20031;-31
2022/01/31 04:08:03;;;;;;;3.67;2.38;;;;;;;13.13;43.86;96781.38;5116698;27;20098;-31
2022/01/31 04:10:28;;;;;;;5.35;2.10;;;;;;;13.15;44.07;96783.69;5135141;27;20471;-31
2022/01/31 04:12:54;;;;;;;5.85;2.30;;;;;;;13.04;44.14;96783.97;5134746;27;20110;-31
2022/01/31 04:15:19;;;;;;;3.35;2.03;;;;;;;13.19;43.57;96773.47;5134353;27;20033;-31
2022/01/31 04:17:45;;;;;;;3.00;1.80;;;;;;;13.04;44.34;96775.81;5134487;27;20065;-32
2022/01/31 04:20:11;;;;;;;4.63;2.10;;;;;;;13.06;44.20;96770.69;5134524;27;20019;-31
2022/01/31 04:22:44;;;;;;;4.78;2.03;;;;;;;13.08;44.31;96762.88;5134479;27;20038;-31
2022/01/31 04:25:17;;;;;;;3.83;2.20;;;;;;;13.14;43.69;96760.34;5134904;27;20098;-31
2022/01/31 04:27:50;;;;;;;3.50;2.50;;;;;;;13.15;43.63;96765.38;5134388;27;20072;-31
2022/01/31 04:30:16;;;;;;;4.05;2.10;;;;;;;13.11;43.82;96763.94;5134558;27;20023;-31
2022/01/31 04:32:41;;;;;;;3.90;2.40;;;;;;;13.16;44.06;96756.03;5134529;27;20023;-31
2022/01/31 04:35:07;;;;;;;4.15;2.25;;;;;;;13.08;43.92;96757.41;5134323;27;20566;-31
2022/01/31 04:37:33;;;;;;;4.43;2.00;;;;;;;13.11;44.03;96756.53;5134242;27;20027;-31
2022/01/31 04:39:58;;;;;;;4.80;2.20;;;;;;;13.07;44.24;96755.13;5134414;27;20019;-31
2022/01/31 04:42:25;;;;;;;4.00;1.88;;;;;;;13.05;44.07;96763.72;5134362;27;20052;-31
2022/01/31 04:44:53;;;;;;;4.18;2.10;;;;;;;13.07;44.11;96750.44;5134329;27;20490;-31
2022/01/31 04:47:18;;;;;;;4.03;2.40;;;;;;;13.11;43.84;96750.31;5134304;27;20019;-31
2022/01/31 04:49:44;;;;;;;3.05;2.17;;;;;;;13.07;44.43;96753.16;5134102;27;20030;-31
2022/01/31 04:52:09;;;;;;;3.97;1.95;;;;;;;13.07;44.06;96761.34;5134204;27;20027;-31
2022/01/31 04:54:35;;;;;;;4.47;2.00;;;;;;;13.08;44.05;96760.13;5134179;28;20023;-31
2022/01/31 04:57:00;;;;;;;5.13;2.20;;;;;;;13.06;44.17;96753.59;5134036;28;20378;-32
2022/01/31 04:59:26;;;;;;;6.38;2.10;;;;;;;13.13;44.39;96750.66;5134270;28;20026;-31
2022/01/31 05:01:52;;;;;;;3.63;1.98;;;;;;;13.04;44.37;96756.75;5134351;28;20047;-31
2022/01/31 05:04:18;;;;;;;5.03;2.28;;;;;;;13.11;43.90;96753.81;5134359;28;20536;-31
2022/01/31 05:06:45;;;;;;;4.03;2.55;;;;;;;13.16;44.18;96753.31;5134043;28;20019;-31
2022/01/31 05:09:11;;;;;;;4.47;2.72;;;;;;;13.09;44.22;96744.56;5133968;28;20106;-31
2022/01/31 05:11:36;;;;;;;3.15;2.00;;;;;;;13.08;44.18;96743.81;5134069;28;20034;-31
2022/01/31 05:14:02;;;;;;;4.28;2.30;;;;;;;13.12;44.50;96739.00;5134440;28;20019;-31
2022/01/31 05:16:28;;;;;;;4.63;2.17;;;;;;;13.17;44.13;96733.03;5133876;28;20019;-31
2022/01/31 05:18:53;;;;;;;4.00;2.28;;;;;;;13.14;44.32;96728.47;5133980;28;20512;-31
2022/01/31 05:21:19;;;;;;;5.20;2.28;;;;;;;13.14;44.83;96723.03;5133955;28;20075;-32
2022/01/31 05:23:46;;;;;;;3.47;2.25;;;;;;;13.14;44.83;96725.75;5134004;28;20019;-31
2022/01/31 05:26:12;;;;;;;4.22;2.10;;;;;;;13.07;44.76;96725.19;5133897;27;20034;-31
2022/01/31 05:28:37;;;;;;;3.42;2.17;;;;;;;13.15;44.80;96713.66;5137704;27;20023;-31
2022/01/31 05:31:03;;;;;;;3.67;2.17;;;;;;;13.11;44.78;96718.41;5137855;27;20023;-31
2022/01/31 05:33:28;;;;;;;4.22;2.42;;;;;;;13.16;44.80;96715.19;5137820;27;20027;-31
2022/01/31 05:35:55;;;;;;;5.10;2.83;;;;;;;13.11;44.98;96712.97;5137986;27;20360;-31
2022/01/31 05:38:20;;;;;;;3.05;1.95;;;;;;;13.13;44.75;96713.28;5137728;27;20027;-31
2022/01/31 05:40:46;;;;;;;3.88;2.22;;;;;;;13.11;44.68;96714.91;5137834;27;20050;-31
2022/01/31 05:43:11;;;;;;;3.22;2.10;;;;;;;13.13;44.62;96715.25;5137809;27;20341;-31
2022/01/31 05:45:37;;;;;;;4.95;2.10;;;;;;;13.10;45.23;96721.59;5137470;27;20022;-31
2022/01/31 05:48:02;;;;;;;4.28;2.33;;;;;;;13.07;44.91;96717.78;5137820;27;20019;-31
2022/01/31 05:50:28;;;;;;;4.43;1.92;;;;;;;13.10;45.40;96714.19;5137567;27;20030;-31
2022/01/31 05:52:54;;;;;;;10.32;4.05;;;;;;;13.09;44.92;96709.94;5137441;27;20481;-31
2022/01/31 05:55:19;;;;;;;5.28;2.83;;;;;;;13.10;45.49;96697.09;5137348;27;20449;-31
2022/01/31 05:57:45;;;;;;;3.42;2.10;;;;;;;13.13;45.31;96696.19;5137324;27;20050;-31
2022/01/31 06:00:11;;;;;;;5.13;2.67;;;;;;;13.09;45.25;96688.16;5137438;27;20068;-31
2022/01/31 06:02:39;;;;;;;4.03;2.30;;;;;;;13.17;45.33;96688.72;5137287;27;20068;-32
2022/01/31 06:05:04;;;;;;;5.13;2.33;;;;;;;13.15;45.35;96697.31;5137234;27;20058;-31
2022/01/31 06:07:30;;;;;;;4.63;2.40;;;;;;;13.10;45.18;96694.34;5137197;27;20054;-31
2022/01/31 06:09:55;;;;;;;4.07;2.40;;;;;;;13.08;45.64;96702.97;5136994;27;20020;-31
2022/01/31 06:12:21;;;;;;;5.43;2.50;;;;;;;13.12;45.19;96689.97;5137137;27;20027;-33
2022/01/31 06:14:46;;;;;;;7.30;2.50;;;;;;;13.15;45.51;96691.88;5136965;27;20023;-31
2022/01/31 06:17:12;;;;;;;5.95;3.78;;;;;;;13.11;45.45;96682.25;5137288;27;20114;-31
2022/01/31 06:19:37;;;;;;;6.07;2.80;;;;;;;13.15;45.13;96683.69;5136781;27;20043;-31
2022/01/31 06:22:03;;;;;;;6.10;3.08;;;;;;;13.12;45.28;96676.38;5136824;27;20019;-31
2022/01/31 06:24:29;;;;;;;6.85;2.88;;;;;;;13.04;45.48;96685.97;5136971;27;20027;-31
2022/01/31 06:26:54;;;;;;;5.38;2.97;;;;;;;13.04;45.60;96687.91;5136738;27;20027;-31
2022/01/31 06:29:20;;;;;;;4.20;2.78;;;;;;;13.04;45.72;96675.06;5136706;27;20027;-31
2022/01/31 06:31:45;;;;;;;4.95;3.28;;;;;;;13.14;45.22;96682.16;5135278;27;20456;-31
2022/01/31 06:34:11;;;;;;;4.80;3.05;;;;;;;13.15;45.58;96670.09;5104580;27;20081;-31
2022/01/31 06:36:36;;;;;;;7.65;4.47;;;;;;;13.16;45.30;96671.59;5134683;27;20035;-31
2022/01/31 06:39:03;;;;;;;5.28;3.65;;;;;;;13.15;45.54;96669.31;5120635;27;20353;-31
2022/01/31 06:41:28;;;;;;;5.75;3.45;;;;;;;13.15;45.66;96683.69;5113961;28;20111;-31
2022/01/31 06:43:54;;;;;;;5.30;3.22;;;;;;;13.14;45.75;96682.16;5113678;28;20024;-31
2022/01/31 06:46:20;;;;;;;7.43;3.45;;;;;;;13.16;45.36;96693.41;5114025;28;20036;-32
2022/01/31 06:48:45;;;;;;;6.30;3.35;;;;;;;13.16;45.35;96682.50;5113761;28;20107;-31
2022/01/31 06:51:11;;;;;;;5.22;3.38;;;;;;;13.07;45.38;96682.38;5127514;27;20078;-31
2022/01/31 06:53:37;;;;;;;4.85;3.35;;;;;;;13.12;45.66;96679.09;5134300;27;20034;-31
2022/01/31 06:56:03;;;;;;;6.47;3.42;;;;;;;13.10;45.57;96684.22;5133941;27;20083;-32
2022/01/31 06:58:28;;;;;;;8.20;3.25;;;;;;;13.10;45.46;96667.91;5134117;27;20062;-31
2022/01/31 07:00:54;;;;;;;8.18;4.05;;;;;;;13.15;45.20;96675.53;5131357;27;20038;-32
2022/01/31 07:03:21;;;;;;;6.78;3.85;;;;;;;13.17;45.64;96684.03;5133843;27;20110;-31
2022/01/31 07:05:47;;;;;;;7.35;4.10;;;;;;;13.13;45.52;96683.34;5134073;27;20024;-31
2022/01/31 07:08:14;;;;;;;10.50;3.53;;;;;;;13.06;45.59;96674.63;5132527;27;20078;-31
2022/01/31 07:10:40;;;;;;;5.60;3.75;;;;;;;13.07;45.75;96657.88;5133973;27;20034;-31
2022/01/31 07:13:22;;;;;;;6.03;3.65;;;;;;;13.09;45.86;96652.00;5133821;27;20115;-31
2022/01/31 07:15:48;;;;;;;7.32;3.60;;;;;;;13.05;45.77;96643.94;5133972;27;20084;-31
2022/01/31 07:18:13;;;;;;;5.93;3.42;;;;;;;13.13;45.61;96639.00;5133301;27;20065;-31
2022/01/31 07:20:41;;;;;;;6.10;3.75;;;;;;;13.05;45.96;96646.66;5133430;27;20098;-31
2022/01/31 07:23:18;;;;;;;7.55;3.90;;;;;;;13.11;45.52;96644.13;5133485;27;20027;-32
2022/01/31 07:25:43;;;;;;;8.73;4.53;;;;;;;13.02;46.00;96644.78;5133553;27;20022;-31
2022/01/31 07:28:11;;;;;;;9.85;4.40;;;;;;;13.13;45.50;96639.00;5115810;27;20468;-33
2022/01/31 07:30:40;;;;;;;5.75;4.10;;;;;;;13.10;45.52;96639.91;5112944;28;20380;-31
2022/01/31 07:33:09;;;;;;;9.00;4.32;;;;;;;13.12;45.42;96627.34;5112539;28;20110;-31
2022/01/31 07:35:35;;;;;;;8.23;4.40;;;;;;;13.09;45.75;96636.41;5112995;28;20088;-31
2022/01/31 07:38:02;;;;;;;7.05;4.78;;;;;;;13.02;46.03;96623.00;5112932;28;20111;-31
2022/01/31 07:40:28;;;;;;;8.32;4.32;;;;;;;12.93;46.26;96622.91;5126367;27;20043;-31
2022/01/31 07:42:53;;;;;;;7.45;4.28;;;;;;;13.06;45.86;96617.47;5102946;27;20532;-30
2022/01/31 07:45:19;;;;;;;8.98;3.92;;;;;;;12.92;46.33;96613.22;5132480;27;20019;-31
2022/01/31 07:47:44;;;;;;;7.50;4.13;;;;;;;13.09;46.01;96616.59;5132636;27;20031;-31
2022/01/31 07:50:11;;;;;;;7.25;4.60;;;;;;;13.05;46.19;96605.81;5131691;27;20042;-31
2022/01/31 07:52:37;;;;;;;7.60;4.10;;;;;;;13.06;46.18;96607.34;5132880;27;20027;-31
2022/01/31 07:55:03;;;;;;;9.05;4.43;;;;;;;13.05;45.86;96607.75;5132782;27;20059;-31
2022/01/31 07:57:29;;;;;;;7.45;4.13;;;;;;;13.00;46.01;96611.78;5114201;27;20027;-31
2022/01/31 07:59:54;;;;;;;8.75;4.50;;;;;;;13.03;46.03;96618.31;5132860;27;20023;-31
2022/01/31 08:02:20;;;;;;;6.47;4.28;;;;;;;13.01;45.97;96602.44;5132265;27;20022;-31
2022/01/31 08:04:45;;;;;;;6.47;3.70;;;;;;;13.02;46.12;96593.06;5132867;27;20121;-32
2022/01/31 08:07:12;;;;;;;8.38;3.97;;;;;;;12.98;46.28;96581.53;5130930;27;20475;-31
2022/01/31 08:09:38;;;;;;;7.07;4.03;;;;;;;12.98;46.35;96586.22;5132410;27;20023;-32
2022/01/31 08:12:05;;;;;;;7.93;3.90;;;;;;;12.92;46.63;96578.59;5132626;27;20023;-31
2022/01/31 08:14:30;;;;;;;6.70;4.07;;;;;;;12.93;46.65;96576.63;5132359;27;20062;-31
2022/01/31 08:16:56;;;;;;;7.90;4.43;;;;;;;12.93;46.73;96563.03;5132404;27;20111;-31
2022/01/31 08:19:21;;;;;;;8.02;4.57;;;;;;;13.04;46.01;96554.50;5131772;27;20047;-31
2022/01/31 08:21:47;;;;;;;6.30;4.15;;;;;;;13.11;46.14;96549.59;5132869;27;20460;-31
2022/01/31 08:24:12;;;;;;;5.88;3.97;;;;;;;13.05;45.88;96558.75;5132272;27;20114;-31
2022/01/31 08:26:39;;;;;;;7.78;4.35;;;;;;;13.09;46.36;96551.25;5132348;27;20075;-31
2022/01/31 08:29:20;;;;;;;8.43;5.03;;;;;;;13.05;46.04;96550.59;5113735;27;20019;-32
2022/01/31 08:31:48;;;;;;;8.15;4.00;;;;;;;12.92;46.45;96543.22;5114803;28;20019;-31
2022/01/31 08:36:43;;;;;;;14.77;7.82;;;;;;;12.39;48.91;96536.72;5113419;28;20031;-31
2022/01/31 08:39:15;;;;;;;18.05;9.07;;;;;;;12.73;47.69;96544.22;5113708;28;20511;-31
2022/01/31 08:41:44;;;;;;;15.43;8.27;;;;;;;12.94;46.81;96548.97;5113978;28;20115;-31
2022/01/31 08:44:11;;;;;;;14.05;7.60;;;;;;;12.93;47.20;96541.25;5113897;28;20102;-32
2022/01/31 08:46:40;;;;;;;13.63;8.10;;;;;;;13.01;46.54;96534.38;5113543;28;20035;-32
2022/01/31 08:49:09;;;;;;;12.57;7.82;;;;;;;13.07;46.34;96529.91;5113612;28;20057;-32
2022/01/31 08:51:36;;;;;;;17.60;7.47;;;;;;;13.02;46.84;96533.16;5113757;28;20065;-31
2022/01/31 08:54:05;;;;;;;13.15;8.32;;;;;;;13.09;46.22;96541.13;5113949;28;20120;-32
2022/01/31 08:56:35;;;;;;;12.93;7.57;;;;;;;13.10;46.15;96512.69;5113724;28;20036;-31
2022/01/31 08:59:02;;;;;;;11.35;7.63;;;;;;;13.13;46.43;96497.41;5113598;28;20048;-31
2022/01/31 09:01:28;;;;;;;12.50;7.35;;;;;;;12.98;46.89;96499.13;5115731;28;20020;-32
2022/01/31 09:06:21;;;;;;;13.50;6.50;;;;;;;12.93;46.96;96489.53;5118169;28;20023;-31
2022/01/31 09:08:47;;;;;;;9.80;6.65;;;;;;;13.02;46.81;96486.88;5117592;28;20031;-31
2022/01/31 09:11:13;;;;;;;10.05;5.97;;;;;;;12.98;46.70;96477.34;5117779;28;20103;-32
2022/01/31 09:13:39;;;;;;;10.80;6.13;;;;;;;13.00;47.12;96467.50;5117503;28;20539;-31
2022/01/31 09:16:06;;;;;;;11.48;6.65;;;;;;;13.01;46.93;96463.59;5117813;28;20148;-31
2022/01/31 09:18:31;;;;;;;9.95;6.10;;;;;;;13.01;47.31;96460.84;5117330;28;20044;-31
2022/01/31 09:20:58;;;;;;;8.88;5.60;;;;;;;13.03;47.26;96465.88;5117501;28;20027;-32
2022/01/31 09:23:24;;;;;;;7.80;5.13;;;;;;;13.06;47.35;96471.19;5117431;28;20035;-31
2022/01/31 09:25:50;;;;;;;7.38;4.70;;;;;;;13.04;47.16;96467.38;5117456;28;20529;-32
2022/01/31 09:28:16;;;;;;;10.32;5.20;;;;;;;13.05;47.32;96466.94;5117264;28;20027;-32
2022/01/31 09:30:43;;;;;;;8.75;4.88;;;;;;;13.13;46.89;96462.78;5099032;28;20016;-31
2022/01/31 09:33:10;;;;;;;7.88;5.22;;;;;;;13.03;47.53;96454.97;5117205;28;20027;-31
2022/01/31 09:35:35;;;;;;;8.50;5.20;;;;;;;13.05;47.26;96466.94;5117128;28;20042;-32
2022/01/31 09:38:03;;;;;;;15.98;5.45;;;;;;;13.00;47.19;96462.06;5117346;28;20027;-31
2022/01/31 09:40:29;;;;;;;6.40;4.47;;;;;;;13.07;47.31;96458.34;5117100;28;20028;-31
2022/01/31 09:48:33;;;;;;;7.28;4.20;;;;;;;13.04;47.45;96445.63;5116830;28;20020;-31
2022/01/31 09:51:12;;;;;;;8.75;4.35;;;;;;;13.05;47.43;96441.69;5117092;28;20427;-31
2022/01/31 09:53:50;;;;;;;7.80;4.22;;;;;;;13.09;47.38;96443.09;5117236;28;20407;-32
2022/01/31 09:56:22;;;;;;;8.05;4.75;;;;;;;13.08;47.35;96440.81;5116591;28;20054;-31
2022/01/31 09:58:49;;;;;;;7.40;3.97;;;;;;;13.04;47.72;96435.47;5116897;28;20026;-31
2022/01/31 10:01:17;;;;;;;6.53;3.97;;;;;;;13.05;47.59;96428.84;5116633;28;20055;-31
2022/01/31 10:04:09;;;;;;;7.65;4.35;;;;;;;12.99;48.28;96416.22;5116483;28;20051;-31
2022/01/31 10:06:37;;;;;;;6.57;4.53;;;;;;;13.03;47.88;96423.06;5116629;28;20175;-31
2022/01/31 10:09:07;;;;;;;8.25;4.03;;;;;;;13.04;47.77;96424.59;5116481;28;20100;-31
2022/01/31 10:11:41;;;;;;;7.40;4.35;;;;;;;13.15;47.61;96416.06;5116395;28;20074;-31
2022/01/31 10:16:56;;;;;;;10.48;4.65;;;;;;;13.15;47.67;96413.34;5116255;28;20089;-31
2022/01/31 10:19:22;;;;;;;7.30;4.00;;;;;;;13.10;47.85;96411.94;5116206;28;20047;-31
2022/01/31 10:22:00;;;;;;;7.95;4.63;;;;;;;13.10;47.64;96408.47;5116223;28;20460;-32
2022/01/31 10:24:27;;;;;;;7.13;4.05;;;;;;;13.13;47.76;96386.53;5116131;28;20051;-31
2022/01/31 10:26:53;;;;;;;8.90;3.90;;;;;;;13.08;48.21;96376.22;5116085;28;20023;-31
2022/01/31 10:29:22;;;;;;;6.97;4.13;;;;;;;13.01;48.24;96354.69;5115349;27;20050;-31
2022/01/31 10:32:02;;;;;;;5.97;3.70;;;;;;;13.12;48.34;96332.50;5114059;28;20032;-31
2022/01/31 10:34:29;;;;;;;4.80;3.30;;;;;;;13.10;47.81;96322.09;5115191;28;20028;-31
2022/01/31 10:37:04;;;;;;;7.30;4.03;;;;;;;13.11;48.24;96309.97;5116262;28;20375;-31
2022/01/31 10:53:08;;;;;;;8.63;4.57;;;;;;;13.06;48.24;96269.72;5115935;28;20352;-32
2022/01/31 10:55:33;;;;;;;9.00;4.50;;;;;;;13.11;48.44;96271.84;5116005;28;20027;-31
2022/01/31 10:58:08;;;;;;;6.47;4.63;;;;;;;13.07;48.59;96265.03;5115788;28;20016;-31
2022/01/31 11:00:39;;;;;;;9.65;4.68;;;;;;;13.10;48.39;96259.47;5115687;28;20026;-31
2022/01/31 11:03:31;;;;;;;9.63;5.05;;;;;;;13.05;49.08;96256.56;5115782;28;20028;-31
2022/01/31 11:05:59;;;;;;;10.47;5.27;;;;;;;12.93;49.30;96245.31;5115492;28;20417;-32
2022/01/31 11:08:25;;;;;;;10.73;4.95;;;;;;;13.07;48.82;96235.84;5115351;28;20035;-31
2022/01/31 11:10:57;;;;;;;8.20;4.90;;;;;;;13.11;48.69;96225.56;5115410;28;20027;-31
2022/01/31 11:13:25;;;;;;;11.63;5.40;;;;;;;13.08;49.12;96210.16;5115566;28;20034;-31
2022/01/31 11:15:52;;;;;;;6.28;4.32;;;;;;;12.97;49.11;96217.97;5115447;28;20024;-31
2022/01/31 11:18:18;;;;;;;8.70;5.13;;;;;;;12.89;49.52;96216.69;5114989;28;20052;-32
2022/01/31 11:20:44;;;;;;;10.13;5.75;;;;;;;12.77;50.28;96223.75;5115076;28;20015;-31
2022/01/31 11:23:12;;;;;;;10.40;5.65;;;;;;;12.88;50.03;96207.00;5115194;28;20030;-31
2022/01/31 11:25:41;;;;;;;9.18;4.60;;;;;;;12.97;50.50;96198.91;5114135;28;20098;-31
2022/01/31 11:28:10;;;;;;;9.13;5.13;;;;;;;12.95;50.25;96193.16;5114958;28;20015;-31
2022/01/31 11:30:36;;;;;;;10.75;5.97;;;;;;;12.90;50.36;96193.72;5114886;28;20107;-31
2022/01/31 11:33:02;;;;;;;18.00;7.53;;;;;;;12.90;50.04;96186.31;5114947;28;20497;-31
2022/01/31 11:35:29;;;;;;;21.30;8.82;;;;;;;13.01;50.42;96174.25;5114802;28;20051;-32
2022/01/31 11:37:55;;;;;;;19.00;8.50;;;;;;;12.97;50.89;96160.81;5114833;28;20061;-32
2022/01/31 11:40:22;;;;;;;19.05;9.02;;;;;;;13.02;50.50;96151.28;5114783;28;20024;-31
2022/01/31 11:42:50;;;;;;;14.80;8.40;;;;;;;12.88;51.10;96156.06;5114823;28;20110;-31
2022/01/31 11:45:39;;;;;;;20.20;9.80;;;;;;;12.97;51.00;96152.63;5114865;28;20457;-31
2022/01/31 11:48:09;;;;;;;20.00;10.05;;;;;;;12.98;51.25;96140.56;5114313;28;20070;-38
2022/01/31 11:51:00;;;;;;;18.85;10.13;;;;;;;12.99;51.15;96133.88;5114672;28;20027;-31
2022/01/31 11:53:36;;;;;;;18.92;10.00;;;;;;;12.93;51.65;96122.84;5096115;28;20414;-31
2022/01/31 11:56:14;;;;;;;20.58;10.65;;;;;;;13.02;51.38;96132.97;5114287;28;20043;-31
2022/01/31 11:58:51;;;;;;;17.50;9.80;;;;;;;13.07;51.02;96129.69;5114431;28;20023;-31